createdAt,value
2023-10-28T07:31:39.673Z,11.50
2023-10-28T07:34:09.249Z,11.40
2023-10-28T07:36:36.717Z,11.50
2023-10-28T07:39:05.065Z,11.60
2023-10-28T07:41:32.448Z,11.50
2023-10-28T07:43:59.984Z,11.60
2023-10-28T07:46:27.456Z,11.50
2023-10-28T07:48:55.091Z,11.50
2023-10-28T07:51:22.533Z,11.50
2023-10-28T07:53:53.600Z,11.50
2023-10-28T07:56:21.583Z,11.50
2023-10-28T07:58:51.405Z,11.50
2023-10-28T08:01:19.334Z,11.50
2023-10-28T08:03:47.396Z,11.60
2023-10-28T08:06:27.873Z,11.60
2023-10-28T08:09:01.958Z,11.70
2023-10-28T08:11:31.167Z,11.70
2023-10-28T08:13:58.645Z,11.80
2023-10-28T08:16:26.159Z,11.80
2023-10-28T08:18:54.036Z,11.80
2023-10-28T08:21:21.530Z,11.90
2023-10-28T08:26:20.907Z,12.00
2023-10-28T08:28:48.337Z,12.10
2023-10-28T08:31:15.712Z,12.20
2023-10-28T08:33:43.054Z,12.30
2023-10-28T08:36:11.271Z,12.40
2023-10-28T08:38:39.489Z,12.40
2023-10-28T08:41:07.146Z,12.40
2023-10-28T08:43:36.069Z,12.40
2023-10-28T08:46:05.801Z,12.50
2023-10-28T08:48:34.276Z,12.70
2023-10-28T08:51:04.193Z,12.90
2023-10-28T08:53:34.891Z,13.00
2023-10-28T08:56:03.700Z,13.10
2023-10-28T08:58:31.353Z,13.10
2023-10-28T09:01:03.201Z,12.90
2023-10-28T09:03:31.870Z,12.90
2023-10-28T09:06:02.308Z,12.90
2023-10-28T09:08:30.107Z,12.90
2023-10-28T09:10:58.937Z,13.00
2023-10-28T09:13:26.414Z,13.10
2023-10-28T09:15:53.794Z,13.10
2023-10-28T09:18:21.310Z,13.20
2023-10-28T09:20:48.631Z,13.20
2023-10-28T09:23:16.747Z,13.20
2023-10-28T09:25:44.632Z,13.20
2023-10-28T09:28:18.231Z,13.20
2023-10-28T09:30:49.052Z,13.20
2023-10-28T09:33:18.511Z,13.30
2023-10-28T09:35:47.399Z,13.40
2023-10-28T09:38:14.818Z,13.30
2023-10-28T09:40:42.627Z,13.40
2023-10-28T09:43:11.170Z,13.40
2023-10-28T09:45:39.574Z,13.50
2023-10-28T09:48:15.215Z,13.50
2023-10-28T09:50:49.550Z,13.50
2023-10-28T09:53:28.254Z,13.50
2023-10-28T09:55:58.345Z,13.60
2023-10-28T09:58:28.672Z,13.50
2023-10-28T10:01:04.175Z,13.50
2023-10-28T10:04:05.409Z,13.40
2023-10-28T10:06:33.133Z,13.40
2023-10-28T10:09:01.660Z,13.60
2023-10-28T10:11:29.357Z,13.70
2023-10-28T10:13:57.194Z,13.90
2023-10-28T10:16:48.001Z,14.00
2023-10-28T10:19:23.663Z,14.00
2023-10-28T10:21:54.418Z,14.10
2023-10-28T10:24:22.114Z,14.50
2023-10-28T10:27:00.539Z,14.90
2023-10-28T10:29:30.630Z,15.40
2023-10-28T10:31:58.191Z,15.50
2023-10-28T10:34:40.887Z,15.50
2023-10-28T10:37:10.904Z,15.40
2023-10-28T10:39:45.240Z,15.50
2023-10-28T10:42:14.142Z,15.60
2023-10-28T10:44:42.059Z,15.50
2023-10-28T10:47:10.745Z,15.50
2023-10-28T10:49:42.183Z,15.40
2023-10-28T10:52:10.283Z,15.20
2023-10-28T10:54:40.321Z,15.30
2023-10-28T10:57:09.647Z,15.40
2023-10-28T10:59:41.630Z,15.40
2023-10-28T11:02:12.198Z,15.40
2023-10-28T11:04:40.850Z,15.40
2023-10-28T11:07:08.972Z,15.30
2023-10-28T11:09:36.644Z,15.40
2023-10-28T11:12:04.953Z,15.40
2023-10-28T11:14:32.557Z,15.50
2023-10-28T11:17:01.046Z,15.50
2023-10-28T11:19:28.826Z,15.50
2023-10-28T11:21:57.121Z,15.70
2023-10-28T11:24:24.583Z,15.90
2023-10-28T11:26:51.974Z,16.10
2023-10-28T11:29:19.449Z,16.30
2023-10-28T11:31:47.245Z,16.20
2023-10-28T11:34:15.458Z,16.20
2023-10-28T11:36:43.212Z,16.10
2023-10-28T11:39:14.477Z,15.80
2023-10-28T11:41:48.597Z,15.70
2023-10-28T11:44:17.904Z,15.60
2023-10-28T11:46:45.373Z,15.60
2023-10-28T11:49:12.785Z,15.50
2023-10-28T11:51:40.390Z,15.40
2023-10-28T11:54:07.804Z,15.60
2023-10-28T11:56:35.317Z,15.70
2023-10-28T11:59:03.378Z,15.80
2023-10-28T12:01:34.074Z,16.00
2023-10-28T12:04:04.400Z,16.00
2023-10-28T12:06:32.985Z,15.90
2023-10-28T12:09:01.888Z,15.70
2023-10-28T12:11:29.872Z,15.50
2023-10-28T12:13:57.872Z,15.30
2023-10-28T12:16:25.853Z,15.30
2023-10-28T12:18:57.844Z,15.30
2023-10-28T12:21:25.242Z,15.30
2023-10-28T12:23:52.593Z,15.30
2023-10-28T12:26:20.037Z,15.40
2023-10-28T12:28:50.618Z,15.40
2023-10-28T12:31:18.141Z,15.30
2023-10-28T12:33:45.892Z,15.10
2023-10-28T12:36:13.291Z,14.90
2023-10-28T12:38:40.697Z,14.80
2023-10-28T12:41:08.167Z,14.70
2023-10-28T12:43:36.953Z,14.70
2023-10-28T12:46:05.049Z,14.70
2023-10-28T12:48:32.846Z,14.90
2023-10-28T12:51:00.940Z,15.00
2023-10-28T12:53:29.515Z,15.00
2023-10-28T12:55:58.089Z,14.90
2023-10-28T12:58:27.413Z,14.80
2023-10-28T13:00:55.186Z,14.70
2023-10-28T13:03:22.714Z,14.60
2023-10-28T13:05:50.147Z,14.60
2023-10-28T13:08:17.555Z,14.60
2023-10-28T13:10:45.294Z,14.60
2023-10-28T13:13:12.707Z,14.50
2023-10-28T13:15:41.261Z,14.50
2023-10-28T13:18:08.730Z,14.50
2023-10-28T13:20:36.186Z,14.50
2023-10-28T13:23:03.638Z,14.50
2023-10-28T13:25:31.190Z,14.70
2023-10-28T13:27:58.572Z,14.80
2023-10-28T13:30:26.033Z,14.90
2023-10-28T13:32:56.886Z,15.00
2023-10-28T13:35:24.864Z,15.00
2023-10-28T13:37:53.049Z,15.10
2023-10-28T13:40:20.670Z,15.10
2023-10-28T13:42:48.204Z,15.10
2023-10-28T13:45:15.662Z,15.00
2023-10-28T13:47:43.619Z,15.00
2023-10-28T13:50:13.041Z,14.90
2023-10-28T13:52:41.008Z,14.90
2023-10-28T13:55:09.002Z,15.00
2023-10-28T13:57:37.068Z,15.10
2023-10-28T14:00:11.626Z,15.30
2023-10-28T14:02:40.063Z,15.50
2023-10-28T14:05:10.291Z,15.80
2023-10-28T14:07:38.453Z,16.00
2023-10-28T14:10:08.156Z,16.10
2023-10-28T14:12:35.744Z,16.00
2023-10-28T14:15:04.488Z,15.80
2023-10-28T14:17:32.191Z,15.50
2023-10-28T14:19:59.663Z,15.20
2023-10-28T14:22:27.251Z,14.80
2023-10-28T14:24:54.608Z,14.60
2023-10-28T14:27:22.022Z,14.30
2023-10-28T14:29:49.490Z,14.20
2023-10-28T14:32:17.706Z,14.20
2023-10-28T14:34:45.157Z,14.10
2023-10-28T14:37:12.618Z,14.10
2023-10-28T14:39:39.964Z,14.20
2023-10-28T14:42:09.200Z,14.10
2023-10-28T14:44:37.179Z,14.10
2023-10-28T14:47:06.010Z,14.10
2023-10-28T14:49:33.446Z,14.10
2023-10-28T14:52:01.187Z,14.00
2023-10-28T14:54:29.343Z,14.00
2023-10-28T14:56:56.714Z,13.90
2023-10-28T14:59:31.962Z,13.80
2023-10-28T15:02:06.152Z,13.80
2023-10-28T15:04:33.746Z,13.60
2023-10-28T15:07:01.192Z,13.50
2023-10-28T15:09:28.568Z,13.50
2023-10-28T15:11:55.941Z,13.40
2023-10-28T15:14:23.945Z,13.30
2023-10-28T15:16:51.419Z,13.30
2023-10-28T15:19:18.901Z,13.30
2023-10-28T15:21:46.246Z,13.20
2023-10-28T15:24:13.618Z,13.20
2023-10-28T15:26:41.118Z,13.20
2023-10-28T15:29:08.687Z,13.20
2023-10-28T15:31:36.104Z,13.10
2023-10-28T15:34:03.530Z,13.10
2023-10-28T15:36:30.958Z,13.10
2023-10-28T15:38:58.356Z,13.00
2023-10-28T15:41:25.889Z,13.00
2023-10-28T15:43:54.620Z,12.90
2023-10-28T15:46:22.701Z,12.80
2023-10-28T15:48:50.765Z,12.70
2023-10-28T15:51:19.860Z,12.70
2023-10-28T15:53:47.374Z,12.70
2023-10-28T15:56:15.002Z,12.60
2023-10-28T15:58:42.806Z,12.60
2023-10-28T16:01:10.284Z,12.70
2023-10-28T16:03:38.229Z,12.70
2023-10-28T16:06:12.409Z,12.70
2023-10-28T16:08:41.140Z,12.60
2023-10-28T16:11:08.795Z,12.50
2023-10-28T16:13:36.587Z,12.50
2023-10-28T16:16:04.330Z,12.60
2023-10-28T16:18:31.733Z,12.50
2023-10-28T16:21:02.193Z,12.50
2023-10-28T16:23:29.719Z,12.60
2023-10-28T16:25:57.648Z,12.60
2023-10-28T16:28:25.413Z,12.50
2023-10-28T16:30:55.546Z,12.50
2023-10-28T16:33:23.844Z,12.50
2023-10-28T16:35:51.695Z,12.50
2023-10-28T16:40:50.108Z,12.40
2023-10-28T16:43:17.553Z,12.30
2023-10-28T16:45:44.971Z,12.20
2023-10-28T16:48:14.329Z,12.10
2023-10-28T16:50:41.753Z,12.00
2023-10-28T16:53:09.957Z,11.80
2023-10-28T16:55:37.497Z,11.60
2023-10-28T16:58:04.874Z,11.50
2023-10-28T17:00:32.247Z,11.30
2023-10-28T17:02:59.740Z,11.10
2023-10-28T17:05:27.310Z,11.00
2023-10-28T17:07:54.984Z,10.90
2023-10-28T17:10:22.325Z,10.90
2023-10-28T17:12:49.778Z,10.80
2023-10-28T17:15:17.132Z,10.90
2023-10-28T17:17:44.588Z,10.90
2023-10-28T17:20:12.139Z,10.90
2023-10-28T17:22:39.580Z,10.90
2023-10-28T17:25:07.745Z,10.90
2023-10-28T17:27:35.091Z,11.00
2023-10-28T17:30:02.494Z,11.00
2023-10-28T17:32:29.938Z,11.10
2023-10-28T17:34:57.630Z,11.20
2023-10-28T17:37:25.175Z,11.20
2023-10-28T17:39:53.826Z,11.30
2023-10-28T17:42:21.180Z,11.30
2023-10-28T17:44:48.709Z,11.30
2023-10-28T17:47:16.269Z,11.30
2023-10-28T17:49:43.690Z,11.40
2023-10-28T17:52:11.026Z,11.40
2023-10-28T17:54:38.396Z,11.40
2023-10-28T17:57:06.861Z,11.40
2023-10-28T17:59:36.844Z,11.40
2023-10-28T18:02:04.554Z,11.40
2023-10-28T18:04:32.609Z,11.30
2023-10-28T18:07:00.336Z,11.40
2023-10-28T18:09:27.712Z,11.40
2023-10-28T18:11:55.700Z,11.30
2023-10-28T18:14:23.123Z,11.40
2023-10-28T18:16:52.107Z,11.40
2023-10-28T18:19:19.505Z,11.30
2023-10-28T18:21:48.615Z,11.40
2023-10-28T18:24:16.230Z,11.40
2023-10-28T18:26:43.717Z,11.40
2023-10-28T18:29:11.245Z,11.50
2023-10-28T18:31:38.718Z,11.40
2023-10-28T18:34:06.092Z,11.50
2023-10-28T18:36:33.437Z,11.60
2023-10-28T18:39:00.932Z,11.50
2023-10-28T18:41:28.565Z,11.60
2023-10-28T18:43:56.263Z,11.60
2023-10-28T18:46:23.768Z,11.60
2023-10-28T18:48:51.301Z,11.60
2023-10-28T18:51:18.981Z,11.70
2023-10-28T18:53:46.486Z,11.70
2023-10-28T18:56:15.335Z,11.60
2023-10-28T18:58:42.830Z,11.60
2023-10-28T19:01:14.203Z,11.60
2023-10-28T19:03:47.075Z,11.60
2023-10-28T19:06:16.564Z,11.60
2023-10-28T19:08:46.682Z,11.50
2023-10-28T19:11:15.551Z,11.60
2023-10-28T19:13:43.090Z,11.70
2023-10-28T19:16:11.264Z,11.80
2023-10-28T19:18:39.849Z,11.90
2023-10-28T19:21:09.448Z,11.90
2023-10-28T19:23:37.256Z,11.90
2023-10-28T19:26:05.159Z,11.90
2023-10-28T19:28:35.661Z,11.80
2023-10-28T19:31:03.606Z,11.80
2023-10-28T19:33:34.084Z,11.60
2023-10-28T19:36:07.208Z,11.50
2023-10-28T19:38:35.927Z,11.30
2023-10-28T19:41:03.439Z,11.20
2023-10-28T19:43:31.153Z,11.20
2023-10-28T19:45:58.892Z,11.10
2023-10-28T19:48:27.688Z,11.10
2023-10-28T19:50:55.066Z,11.10
2023-10-28T19:53:22.517Z,11.10
2023-10-28T19:55:49.936Z,11.00
2023-10-28T19:58:17.293Z,11.00
2023-10-28T20:00:44.682Z,10.90
2023-10-28T20:03:14.152Z,10.80
2023-10-28T20:05:41.600Z,10.80
2023-10-28T20:08:09.062Z,10.80
2023-10-28T20:10:36.447Z,10.70
2023-10-28T20:13:03.771Z,10.60
2023-10-28T20:15:33.011Z,10.50
2023-10-28T20:18:01.506Z,10.40
2023-10-28T20:20:29.636Z,10.40
2023-10-28T20:22:59.359Z,10.30
2023-10-28T20:25:27.195Z,10.20
2023-10-28T20:27:54.612Z,10.10
2023-10-28T20:30:22.092Z,10.00
2023-10-28T20:32:49.580Z,9.90
2023-10-28T20:35:17.167Z,9.80
2023-10-28T20:37:44.653Z,9.60
2023-10-28T20:40:12.561Z,9.40
2023-10-28T20:42:41.011Z,9.20
2023-10-28T20:45:10.618Z,9.10
2023-10-28T20:47:40.461Z,9.20
2023-10-28T20:50:09.277Z,8.90
2023-10-28T20:52:36.871Z,8.90
2023-10-28T20:55:04.843Z,8.80
2023-10-28T20:57:32.390Z,8.70
2023-10-28T20:59:59.749Z,8.70
2023-10-28T21:02:27.187Z,9.00
2023-10-28T21:14:45.388Z,9.00
2023-10-28T21:17:14.415Z,9.00
2023-10-28T21:27:04.965Z,8.70
2023-10-28T23:37:48.092Z,8.50
